sensor_id;sensor_type;location;lat;lon;timestamp;P1;durP1;ratioP1;P2;durP2;ratioP2
17796;SDS011;55596;53.554;9.916;2022-12-11T00:02:01;14.80;;;10.27;;
17796;SDS011;55596;53.554;9.916;2022-12-11T00:04:28;16.03;;;9.90;;
17796;SDS011;55596;53.554;9.916;2022-12-11T00:06:56;16.10;;;10.27;;
17796;SDS011;55596;53.554;9.916;2022-12-11T00:09:23;14.20;;;10.30;;
17796;SDS011;55596;53.554;9.916;2022-12-11T00:11:51;16.33;;;10.50;;
17796;SDS011;55596;53.554;9.916;2022-12-11T00:14:18;15.43;;;10.97;;
17796;SDS011;55596;53.554;9.916;2022-12-11T00:16:46;14.57;;;10.13;;
17796;SDS011;55596;53.554;9.916;2022-12-11T00:19:13;15.60;;;10.13;;
17796;SDS011;55596;53.554;9.916;2022-12-11T00:21:42;14.23;;;10.10;;
17796;SDS011;55596;53.554;9.916;2022-12-11T00:24:09;15.33;;;10.33;;
17796;SDS011;55596;53.554;9.916;2022-12-11T00:26:36;15.17;;;10.60;;
17796;SDS011;55596;53.554;9.916;2022-12-11T00:29:05;16.87;;;10.57;;
17796;SDS011;55596;53.554;9.916;2022-12-11T00:31:32;15.00;;;10.13;;
17796;SDS011;55596;53.554;9.916;2022-12-11T00:34:00;15.27;;;10.30;;
17796;SDS011;55596;53.554;9.916;2022-12-11T00:36:27;16.73;;;10.53;;
17796;SDS011;55596;53.554;9.916;2022-12-11T00:38:54;14.63;;;9.90;;
17796;SDS011;55596;53.554;9.916;2022-12-11T00:41:21;14.10;;;9.80;;
17796;SDS011;55596;53.554;9.916;2022-12-11T00:43:49;14.70;;;9.43;;
17796;SDS011;55596;53.554;9.916;2022-12-11T00:46:17;13.90;;;9.93;;
17796;SDS011;55596;53.554;9.916;2022-12-11T00:48:44;15.73;;;9.97;;
17796;SDS011;55596;53.554;9.916;2022-12-11T00:51:14;15.13;;;10.27;;
17796;SDS011;55596;53.554;9.916;2022-12-11T00:53:41;16.30;;;10.37;;
17796;SDS011;55596;53.554;9.916;2022-12-11T00:56:08;16.20;;;10.47;;
17796;SDS011;55596;53.554;9.916;2022-12-11T00:58:37;14.87;;;10.40;;
17796;SDS011;55596;53.554;9.916;2022-12-11T01:01:05;13.97;;;9.80;;
17796;SDS011;55596;53.554;9.916;2022-12-11T01:03:34;17.10;;;10.47;;
17796;SDS011;55596;53.554;9.916;2022-12-11T01:06:01;17.97;;;12.10;;
17796;SDS011;55596;53.554;9.916;2022-12-11T01:08:29;13.93;;;10.03;;
17796;SDS011;55596;53.554;9.916;2022-12-11T01:11:00;15.07;;;10.20;;
17796;SDS011;55596;53.554;9.916;2022-12-11T01:13:28;15.83;;;10.43;;
17796;SDS011;55596;53.554;9.916;2022-12-11T01:15:55;14.87;;;9.27;;
17796;SDS011;55596;53.554;9.916;2022-12-11T01:18:22;14.50;;;10.17;;
17796;SDS011;55596;53.554;9.916;2022-12-11T01:20:50;16.73;;;10.30;;
17796;SDS011;55596;53.554;9.916;2022-12-11T01:23:18;14.10;;;9.33;;
17796;SDS011;55596;53.554;9.916;2022-12-11T01:25:44;16.57;;;10.40;;
17796;SDS011;55596;53.554;9.916;2022-12-11T01:28:11;15.43;;;10.03;;
17796;SDS011;55596;53.554;9.916;2022-12-11T01:30:40;15.67;;;10.67;;
17796;SDS011;55596;53.554;9.916;2022-12-11T01:33:08;15.60;;;11.10;;
17796;SDS011;55596;53.554;9.916;2022-12-11T01:35:35;16.63;;;10.20;;
17796;SDS011;55596;53.554;9.916;2022-12-11T01:38:05;15.77;;;10.20;;
17796;SDS011;55596;53.554;9.916;2022-12-11T01:40:32;16.00;;;10.67;;
17796;SDS011;55596;53.554;9.916;2022-12-11T01:42:59;17.00;;;10.93;;
17796;SDS011;55596;53.554;9.916;2022-12-11T01:45:30;17.67;;;10.70;;
17796;SDS011;55596;53.554;9.916;2022-12-11T01:48:06;13.27;;;9.37;;
17796;SDS011;55596;53.554;9.916;2022-12-11T01:50:38;15.07;;;9.77;;
17796;SDS011;55596;53.554;9.916;2022-12-11T01:53:11;15.70;;;10.50;;
17796;SDS011;55596;53.554;9.916;2022-12-11T01:55:42;16.47;;;10.60;;
17796;SDS011;55596;53.554;9.916;2022-12-11T01:58:11;15.13;;;10.33;;
17796;SDS011;55596;53.554;9.916;2022-12-11T02:00:40;15.87;;;10.13;;
17796;SDS011;55596;53.554;9.916;2022-12-11T02:03:07;14.27;;;10.07;;
17796;SDS011;55596;53.554;9.916;2022-12-11T02:05:34;16.83;;;10.47;;
17796;SDS011;55596;53.554;9.916;2022-12-11T02:08:00;14.97;;;10.27;;
17796;SDS011;55596;53.554;9.916;2022-12-11T02:10:33;16.43;;;10.87;;
17796;SDS011;55596;53.554;9.916;2022-12-11T02:13:12;13.93;;;10.27;;
17796;SDS011;55596;53.554;9.916;2022-12-11T02:15:44;15.80;;;9.93;;
17796;SDS011;55596;53.554;9.916;2022-12-11T02:18:15;14.07;;;9.87;;
17796;SDS011;55596;53.554;9.916;2022-12-11T02:20:53;15.83;;;9.97;;
17796;SDS011;55596;53.554;9.916;2022-12-11T02:23:37;15.60;;;10.57;;
17796;SDS011;55596;53.554;9.916;2022-12-11T02:26:43;15.97;;;10.40;;
17796;SDS011;55596;53.554;9.916;2022-12-11T02:29:22;17.27;;;11.77;;
17796;SDS011;55596;53.554;9.916;2022-12-11T02:31:56;17.53;;;11.50;;
17796;SDS011;55596;53.554;9.916;2022-12-11T02:34:27;17.13;;;10.97;;
17796;SDS011;55596;53.554;9.916;2022-12-11T02:36:58;15.37;;;10.33;;
17796;SDS011;55596;53.554;9.916;2022-12-11T02:39:29;15.93;;;10.40;;
17796;SDS011;55596;53.554;9.916;2022-12-11T02:41:58;15.73;;;10.10;;
17796;SDS011;55596;53.554;9.916;2022-12-11T02:44:28;17.43;;;11.13;;
17796;SDS011;55596;53.554;9.916;2022-12-11T02:46:58;16.07;;;10.70;;
17796;SDS011;55596;53.554;9.916;2022-12-11T02:49:25;15.83;;;10.60;;
17796;SDS011;55596;53.554;9.916;2022-12-11T02:51:53;16.77;;;10.60;;
17796;SDS011;55596;53.554;9.916;2022-12-11T02:54:22;16.87;;;10.83;;
17796;SDS011;55596;53.554;9.916;2022-12-11T02:56:53;15.77;;;10.60;;
17796;SDS011;55596;53.554;9.916;2022-12-11T02:59:28;16.77;;;11.20;;
17796;SDS011;55596;53.554;9.916;2022-12-11T03:01:58;16.10;;;10.90;;
17796;SDS011;55596;53.554;9.916;2022-12-11T03:04:26;16.97;;;10.97;;
17796;SDS011;55596;53.554;9.916;2022-12-11T03:06:55;18.13;;;11.77;;
17796;SDS011;55596;53.554;9.916;2022-12-11T03:09:31;15.00;;;10.17;;
17796;SDS011;55596;53.554;9.916;2022-12-11T03:11:58;17.03;;;11.43;;
17796;SDS011;55596;53.554;9.916;2022-12-11T03:14:24;17.93;;;11.67;;
17796;SDS011;55596;53.554;9.916;2022-12-11T03:16:55;17.60;;;11.90;;
17796;SDS011;55596;53.554;9.916;2022-12-11T03:19:30;15.90;;;11.50;;
17796;SDS011;55596;53.554;9.916;2022-12-11T03:22:02;18.10;;;11.30;;
17796;SDS011;55596;53.554;9.916;2022-12-11T03:24:37;17.80;;;11.80;;
17796;SDS011;55596;53.554;9.916;2022-12-11T03:27:11;17.47;;;11.43;;
17796;SDS011;55596;53.554;9.916;2022-12-11T03:29:45;18.43;;;12.80;;
17796;SDS011;55596;53.554;9.916;2022-12-11T03:32:20;16.70;;;12.07;;
17796;SDS011;55596;53.554;9.916;2022-12-11T03:34:51;21.03;;;13.50;;
17796;SDS011;55596;53.554;9.916;2022-12-11T03:37:22;31.20;;;12.80;;
17796;SDS011;55596;53.554;9.916;2022-12-11T03:39:50;19.20;;;12.43;;
17796;SDS011;55596;53.554;9.916;2022-12-11T03:42:19;19.37;;;12.70;;
17796;SDS011;55596;53.554;9.916;2022-12-11T03:44:48;16.87;;;12.07;;
17796;SDS011;55596;53.554;9.916;2022-12-11T03:47:18;18.27;;;12.33;;
17796;SDS011;55596;53.554;9.916;2022-12-11T03:49:49;16.60;;;11.57;;
17796;SDS011;55596;53.554;9.916;2022-12-11T03:52:17;17.67;;;11.67;;
17796;SDS011;55596;53.554;9.916;2022-12-11T03:54:45;17.70;;;11.93;;
17796;SDS011;55596;53.554;9.916;2022-12-11T03:57:15;17.93;;;11.90;;
17796;SDS011;55596;53.554;9.916;2022-12-11T03:59:44;17.40;;;10.97;;
17796;SDS011;55596;53.554;9.916;2022-12-11T04:02:11;16.87;;;11.27;;
17796;SDS011;55596;53.554;9.916;2022-12-11T04:04:40;17.80;;;11.30;;
17796;SDS011;55596;53.554;9.916;2022-12-11T04:07:08;16.73;;;10.97;;
17796;SDS011;55596;53.554;9.916;2022-12-11T04:09:35;17.10;;;11.10;;
17796;SDS011;55596;53.554;9.916;2022-12-11T04:12:01;18.17;;;11.23;;
17796;SDS011;55596;53.554;9.916;2022-12-11T04:14:28;15.03;;;10.30;;
17796;SDS011;55596;53.554;9.916;2022-12-11T04:17:13;17.10;;;11.50;;
17796;SDS011;55596;53.554;9.916;2022-12-11T04:20:01;16.33;;;10.93;;
17796;SDS011;55596;53.554;9.916;2022-12-11T04:22:46;19.83;;;11.33;;
17796;SDS011;55596;53.554;9.916;2022-12-11T04:25:30;20.10;;;11.33;;
17796;SDS011;55596;53.554;9.916;2022-12-11T04:27:57;17.87;;;11.90;;
17796;SDS011;55596;53.554;9.916;2022-12-11T04:30:24;19.50;;;12.03;;
17796;SDS011;55596;53.554;9.916;2022-12-11T04:32:51;19.17;;;11.77;;
17796;SDS011;55596;53.554;9.916;2022-12-11T04:35:20;14.60;;;10.37;;
17796;SDS011;55596;53.554;9.916;2022-12-11T04:37:47;17.47;;;11.33;;
17796;SDS011;55596;53.554;9.916;2022-12-11T04:40:16;16.37;;;11.33;;
17796;SDS011;55596;53.554;9.916;2022-12-11T04:42:44;16.70;;;10.50;;
17796;SDS011;55596;53.554;9.916;2022-12-11T04:45:11;16.57;;;10.73;;
17796;SDS011;55596;53.554;9.916;2022-12-11T04:47:38;19.47;;;10.93;;
17796;SDS011;55596;53.554;9.916;2022-12-11T04:50:07;16.13;;;11.57;;
17796;SDS011;55596;53.554;9.916;2022-12-11T04:52:37;18.13;;;11.40;;
17796;SDS011;55596;53.554;9.916;2022-12-11T04:55:04;15.63;;;10.67;;
17796;SDS011;55596;53.554;9.916;2022-12-11T04:57:31;16.53;;;11.03;;
17796;SDS011;55596;53.554;9.916;2022-12-11T04:59:58;17.53;;;11.70;;
17796;SDS011;55596;53.554;9.916;2022-12-11T05:02:29;17.50;;;11.03;;
17796;SDS011;55596;53.554;9.916;2022-12-11T05:05:04;17.83;;;11.77;;
17796;SDS011;55596;53.554;9.916;2022-12-11T05:07:33;18.03;;;10.97;;
17796;SDS011;55596;53.554;9.916;2022-12-11T05:10:02;16.03;;;11.17;;
17796;SDS011;55596;53.554;9.916;2022-12-11T05:12:30;16.43;;;11.27;;
17796;SDS011;55596;53.554;9.916;2022-12-11T05:14:57;17.30;;;11.70;;
17796;SDS011;55596;53.554;9.916;2022-12-11T05:17:24;19.23;;;12.50;;
17796;SDS011;55596;53.554;9.916;2022-12-11T05:19:50;15.80;;;11.30;;
17796;SDS011;55596;53.554;9.916;2022-12-11T05:22:18;16.90;;;11.53;;
17796;SDS011;55596;53.554;9.916;2022-12-11T05:24:45;15.33;;;11.00;;
17796;SDS011;55596;53.554;9.916;2022-12-11T05:27:13;16.07;;;10.67;;
17796;SDS011;55596;53.554;9.916;2022-12-11T05:29:40;18.80;;;11.60;;
17796;SDS011;55596;53.554;9.916;2022-12-11T05:32:07;16.03;;;10.73;;
17796;SDS011;55596;53.554;9.916;2022-12-11T05:34:34;18.57;;;11.00;;
17796;SDS011;55596;53.554;9.916;2022-12-11T05:37:01;16.03;;;10.67;;
17796;SDS011;55596;53.554;9.916;2022-12-11T05:39:28;15.40;;;10.33;;
17796;SDS011;55596;53.554;9.916;2022-12-11T05:41:55;18.87;;;12.23;;
17796;SDS011;55596;53.554;9.916;2022-12-11T05:44:23;15.87;;;10.27;;
17796;SDS011;55596;53.554;9.916;2022-12-11T05:46:50;15.10;;;10.50;;
17796;SDS011;55596;53.554;9.916;2022-12-11T05:49:17;15.17;;;10.57;;
17796;SDS011;55596;53.554;9.916;2022-12-11T05:51:44;15.20;;;9.80;;
17796;SDS011;55596;53.554;9.916;2022-12-11T05:54:10;15.17;;;10.33;;
17796;SDS011;55596;53.554;9.916;2022-12-11T05:56:37;16.13;;;10.03;;
17796;SDS011;55596;53.554;9.916;2022-12-11T05:59:05;14.23;;;10.03;;
17796;SDS011;55596;53.554;9.916;2022-12-11T06:01:34;14.47;;;9.80;;
17796;SDS011;55596;53.554;9.916;2022-12-11T06:04:03;18.13;;;10.90;;
17796;SDS011;55596;53.554;9.916;2022-12-11T06:06:31;15.63;;;10.57;;
17796;SDS011;55596;53.554;9.916;2022-12-11T06:08:58;15.93;;;10.13;;
17796;SDS011;55596;53.554;9.916;2022-12-11T06:11:26;15.77;;;9.67;;
17796;SDS011;55596;53.554;9.916;2022-12-11T06:13:55;14.23;;;9.07;;
17796;SDS011;55596;53.554;9.916;2022-12-11T06:16:25;12.07;;;7.93;;
17796;SDS011;55596;53.554;9.916;2022-12-11T06:18:53;12.93;;;7.80;;
17796;SDS011;55596;53.554;9.916;2022-12-11T06:21:20;13.07;;;8.20;;
17796;SDS011;55596;53.554;9.916;2022-12-11T06:23:49;13.20;;;8.57;;
17796;SDS011;55596;53.554;9.916;2022-12-11T06:26:17;12.77;;;7.97;;
17796;SDS011;55596;53.554;9.916;2022-12-11T06:28:45;12.93;;;8.77;;
17796;SDS011;55596;53.554;9.916;2022-12-11T06:31:13;13.13;;;8.57;;
17796;SDS011;55596;53.554;9.916;2022-12-11T06:33:40;14.97;;;9.00;;
17796;SDS011;55596;53.554;9.916;2022-12-11T06:36:10;12.93;;;9.30;;
17796;SDS011;55596;53.554;9.916;2022-12-11T06:38:38;16.70;;;9.77;;
17796;SDS011;55596;53.554;9.916;2022-12-11T06:41:06;15.30;;;9.47;;
17796;SDS011;55596;53.554;9.916;2022-12-11T06:43:34;13.23;;;8.73;;
17796;SDS011;55596;53.554;9.916;2022-12-11T06:46:02;15.27;;;9.47;;
17796;SDS011;55596;53.554;9.916;2022-12-11T06:48:30;13.67;;;8.73;;
17796;SDS011;55596;53.554;9.916;2022-12-11T06:50:57;14.27;;;9.63;;
17796;SDS011;55596;53.554;9.916;2022-12-11T06:53:26;14.37;;;9.23;;
17796;SDS011;55596;53.554;9.916;2022-12-11T06:55:53;13.13;;;8.63;;
17796;SDS011;55596;53.554;9.916;2022-12-11T06:58:20;16.67;;;9.73;;
17796;SDS011;55596;53.554;9.916;2022-12-11T07:00:47;16.57;;;10.43;;
17796;SDS011;55596;53.554;9.916;2022-12-11T07:03:14;16.47;;;10.30;;
17796;SDS011;55596;53.554;9.916;2022-12-11T07:05:41;15.43;;;10.10;;
17796;SDS011;55596;53.554;9.916;2022-12-11T07:08:08;17.00;;;10.63;;
17796;SDS011;55596;53.554;9.916;2022-12-11T07:10:36;19.33;;;10.57;;
17796;SDS011;55596;53.554;9.916;2022-12-11T07:13:03;18.07;;;11.40;;
17796;SDS011;55596;53.554;9.916;2022-12-11T07:15:30;18.17;;;11.33;;
17796;SDS011;55596;53.554;9.916;2022-12-11T07:17:57;17.23;;;11.20;;
17796;SDS011;55596;53.554;9.916;2022-12-11T07:20:24;16.37;;;10.47;;
17796;SDS011;55596;53.554;9.916;2022-12-11T07:22:50;16.97;;;11.67;;
17796;SDS011;55596;53.554;9.916;2022-12-11T07:25:19;19.23;;;12.00;;
17796;SDS011;55596;53.554;9.916;2022-12-11T07:27:47;19.63;;;11.63;;
17796;SDS011;55596;53.554;9.916;2022-12-11T07:30:14;17.97;;;11.40;;
17796;SDS011;55596;53.554;9.916;2022-12-11T07:32:41;22.00;;;12.90;;
17796;SDS011;55596;53.554;9.916;2022-12-11T07:35:08;21.80;;;12.73;;
17796;SDS011;55596;53.554;9.916;2022-12-11T07:37:35;20.07;;;13.03;;
17796;SDS011;55596;53.554;9.916;2022-12-11T07:40:05;21.67;;;13.13;;
17796;SDS011;55596;53.554;9.916;2022-12-11T07:42:33;20.97;;;12.87;;
17796;SDS011;55596;53.554;9.916;2022-12-11T07:45:02;18.67;;;12.37;;
17796;SDS011;55596;53.554;9.916;2022-12-11T07:47:29;17.87;;;12.37;;
17796;SDS011;55596;53.554;9.916;2022-12-11T07:49:56;20.03;;;12.93;;
17796;SDS011;55596;53.554;9.916;2022-12-11T07:52:23;20.47;;;11.53;;
17796;SDS011;55596;53.554;9.916;2022-12-11T07:54:50;19.70;;;12.30;;
17796;SDS011;55596;53.554;9.916;2022-12-11T07:57:17;19.70;;;12.40;;
17796;SDS011;55596;53.554;9.916;2022-12-11T07:59:45;22.50;;;12.57;;
17796;SDS011;55596;53.554;9.916;2022-12-11T08:02:13;18.93;;;11.37;;
17796;SDS011;55596;53.554;9.916;2022-12-11T08:04:40;18.77;;;11.73;;
17796;SDS011;55596;53.554;9.916;2022-12-11T08:07:07;22.53;;;13.17;;
17796;SDS011;55596;53.554;9.916;2022-12-11T08:09:34;20.40;;;11.53;;
17796;SDS011;55596;53.554;9.916;2022-12-11T08:12:00;22.87;;;12.03;;
17796;SDS011;55596;53.554;9.916;2022-12-11T08:14:27;18.13;;;11.50;;
17796;SDS011;55596;53.554;9.916;2022-12-11T08:16:54;18.13;;;11.33;;
17796;SDS011;55596;53.554;9.916;2022-12-11T08:19:23;19.00;;;11.90;;
17796;SDS011;55596;53.554;9.916;2022-12-11T08:21:50;18.37;;;11.47;;
17796;SDS011;55596;53.554;9.916;2022-12-11T08:24:17;20.03;;;11.77;;
17796;SDS011;55596;53.554;9.916;2022-12-11T08:26:44;17.73;;;10.77;;
17796;SDS011;55596;53.554;9.916;2022-12-11T08:29:12;19.67;;;11.70;;
17796;SDS011;55596;53.554;9.916;2022-12-11T08:31:40;18.17;;;11.30;;
17796;SDS011;55596;53.554;9.916;2022-12-11T08:34:12;20.30;;;11.33;;
17796;SDS011;55596;53.554;9.916;2022-12-11T08:36:41;19.17;;;11.67;;
17796;SDS011;55596;53.554;9.916;2022-12-11T08:39:08;19.93;;;11.13;;
17796;SDS011;55596;53.554;9.916;2022-12-11T08:41:35;17.00;;;10.37;;
17796;SDS011;55596;53.554;9.916;2022-12-11T08:44:03;18.00;;;10.77;;
17796;SDS011;55596;53.554;9.916;2022-12-11T08:46:42;18.33;;;11.03;;
17796;SDS011;55596;53.554;9.916;2022-12-11T08:49:09;17.87;;;10.87;;
17796;SDS011;55596;53.554;9.916;2022-12-11T08:51:36;16.87;;;10.43;;
17796;SDS011;55596;53.554;9.916;2022-12-11T08:54:12;16.73;;;10.10;;
17796;SDS011;55596;53.554;9.916;2022-12-11T08:56:39;19.60;;;11.03;;
17796;SDS011;55596;53.554;9.916;2022-12-11T08:59:06;16.37;;;10.30;;
17796;SDS011;55596;53.554;9.916;2022-12-11T09:01:33;18.57;;;10.67;;
17796;SDS011;55596;53.554;9.916;2022-12-11T09:04:00;17.67;;;10.40;;
17796;SDS011;55596;53.554;9.916;2022-12-11T09:06:27;16.57;;;10.50;;
17796;SDS011;55596;53.554;9.916;2022-12-11T09:08:57;18.50;;;11.17;;
17796;SDS011;55596;53.554;9.916;2022-12-11T09:11:27;15.53;;;10.10;;
17796;SDS011;55596;53.554;9.916;2022-12-11T09:13:55;18.27;;;11.20;;
17796;SDS011;55596;53.554;9.916;2022-12-11T09:16:23;16.23;;;10.60;;
17796;SDS011;55596;53.554;9.916;2022-12-11T09:18:52;17.40;;;10.40;;
17796;SDS011;55596;53.554;9.916;2022-12-11T09:21:21;18.30;;;10.10;;
17796;SDS011;55596;53.554;9.916;2022-12-11T09:23:51;17.50;;;10.37;;
17796;SDS011;55596;53.554;9.916;2022-12-11T09:26:19;17.03;;;10.90;;
17796;SDS011;55596;53.554;9.916;2022-12-11T09:28:48;20.87;;;11.20;;
17796;SDS011;55596;53.554;9.916;2022-12-11T09:31:17;18.57;;;10.93;;
17796;SDS011;55596;53.554;9.916;2022-12-11T09:33:47;17.53;;;10.77;;
17796;SDS011;55596;53.554;9.916;2022-12-11T09:36:15;15.93;;;10.20;;
17796;SDS011;55596;53.554;9.916;2022-12-11T09:38:42;16.97;;;9.97;;
17796;SDS011;55596;53.554;9.916;2022-12-11T09:41:25;15.73;;;9.90;;
17796;SDS011;55596;53.554;9.916;2022-12-11T09:44:03;14.23;;;9.10;;
17796;SDS011;55596;53.554;9.916;2022-12-11T09:46:43;16.93;;;10.10;;
17796;SDS011;55596;53.554;9.916;2022-12-11T09:49:14;19.43;;;10.20;;
17796;SDS011;55596;53.554;9.916;2022-12-11T09:51:46;14.50;;;9.70;;
17796;SDS011;55596;53.554;9.916;2022-12-11T09:54:23;16.10;;;10.40;;
17796;SDS011;55596;53.554;9.916;2022-12-11T09:56:53;15.00;;;9.17;;
17796;SDS011;55596;53.554;9.916;2022-12-11T09:59:29;15.53;;;9.57;;
17796;SDS011;55596;53.554;9.916;2022-12-11T10:02:02;15.00;;;10.00;;
17796;SDS011;55596;53.554;9.916;2022-12-11T10:04:51;13.70;;;9.30;;
17796;SDS011;55596;53.554;9.916;2022-12-11T10:07:31;15.73;;;10.00;;
17796;SDS011;55596;53.554;9.916;2022-12-11T10:10:06;13.40;;;8.90;;
17796;SDS011;55596;53.554;9.916;2022-12-11T10:12:45;13.30;;;8.40;;
17796;SDS011;55596;53.554;9.916;2022-12-11T10:15:25;15.30;;;9.30;;
17796;SDS011;55596;53.554;9.916;2022-12-11T10:18:01;19.10;;;9.43;;
17796;SDS011;55596;53.554;9.916;2022-12-11T10:20:32;17.20;;;9.23;;
17796;SDS011;55596;53.554;9.916;2022-12-11T10:23:04;18.23;;;9.70;;
17796;SDS011;55596;53.554;9.916;2022-12-11T10:25:34;16.63;;;9.50;;
17796;SDS011;55596;53.554;9.916;2022-12-11T10:28:07;14.70;;;9.57;;
17796;SDS011;55596;53.554;9.916;2022-12-11T10:30:42;12.73;;;8.50;;
17796;SDS011;55596;53.554;9.916;2022-12-11T10:33:17;15.27;;;8.90;;
17796;SDS011;55596;53.554;9.916;2022-12-11T10:35:47;12.50;;;8.70;;
17796;SDS011;55596;53.554;9.916;2022-12-11T10:38:19;15.67;;;9.23;;
17796;SDS011;55596;53.554;9.916;2022-12-11T10:40:51;13.40;;;8.67;;
17796;SDS011;55596;53.554;9.916;2022-12-11T10:43:30;16.40;;;9.07;;
17796;SDS011;55596;53.554;9.916;2022-12-11T10:46:00;15.77;;;9.30;;
17796;SDS011;55596;53.554;9.916;2022-12-11T10:48:26;16.93;;;9.13;;
17796;SDS011;55596;53.554;9.916;2022-12-11T10:50:55;16.07;;;9.30;;
17796;SDS011;55596;53.554;9.916;2022-12-11T10:53:25;14.60;;;8.77;;
17796;SDS011;55596;53.554;9.916;2022-12-11T10:55:53;14.67;;;8.47;;
17796;SDS011;55596;53.554;9.916;2022-12-11T10:58:22;14.90;;;8.83;;
17796;SDS011;55596;53.554;9.916;2022-12-11T11:01:01;17.90;;;9.30;;
17796;SDS011;55596;53.554;9.916;2022-12-11T11:03:31;13.67;;;8.60;;
17796;SDS011;55596;53.554;9.916;2022-12-11T11:06:03;14.77;;;9.10;;
17796;SDS011;55596;53.554;9.916;2022-12-11T11:08:37;12.70;;;8.50;;
17796;SDS011;55596;53.554;9.916;2022-12-11T11:11:05;17.97;;;8.57;;
17796;SDS011;55596;53.554;9.916;2022-12-11T11:13:42;13.77;;;8.73;;
17796;SDS011;55596;53.554;9.916;2022-12-11T11:16:12;12.93;;;8.43;;
17796;SDS011;55596;53.554;9.916;2022-12-11T11:18:49;14.87;;;8.60;;
17796;SDS011;55596;53.554;9.916;2022-12-11T11:21:18;15.90;;;9.20;;
17796;SDS011;55596;53.554;9.916;2022-12-11T11:23:46;14.43;;;9.17;;
17796;SDS011;55596;53.554;9.916;2022-12-11T11:26:13;12.90;;;8.67;;
17796;SDS011;55596;53.554;9.916;2022-12-11T11:28:41;14.90;;;8.97;;
17796;SDS011;55596;53.554;9.916;2022-12-11T11:31:15;14.13;;;8.27;;
17796;SDS011;55596;53.554;9.916;2022-12-11T11:33:45;13.30;;;8.40;;
17796;SDS011;55596;53.554;9.916;2022-12-11T11:36:19;12.00;;;8.40;;
17796;SDS011;55596;53.554;9.916;2022-12-11T11:38:48;10.77;;;7.83;;
17796;SDS011;55596;53.554;9.916;2022-12-11T11:41:23;10.73;;;8.37;;
17796;SDS011;55596;53.554;9.916;2022-12-11T11:43:55;10.37;;;7.50;;
17796;SDS011;55596;53.554;9.916;2022-12-11T11:46:26;10.33;;;7.57;;
17796;SDS011;55596;53.554;9.916;2022-12-11T11:49:02;11.73;;;8.27;;
17796;SDS011;55596;53.554;9.916;2022-12-11T11:51:36;14.63;;;8.07;;
17796;SDS011;55596;53.554;9.916;2022-12-11T11:54:10;14.20;;;8.37;;
17796;SDS011;55596;53.554;9.916;2022-12-11T11:56:45;12.37;;;8.10;;
17796;SDS011;55596;53.554;9.916;2022-12-11T11:59:18;11.73;;;8.43;;
17796;SDS011;55596;53.554;9.916;2022-12-11T12:01:53;8.00;;;7.20;;
17796;SDS011;55596;53.554;9.916;2022-12-11T12:04:22;9.87;;;7.00;;
17796;SDS011;55596;53.554;9.916;2022-12-11T12:06:56;9.67;;;7.87;;
17796;SDS011;55596;53.554;9.916;2022-12-11T12:09:35;11.73;;;7.57;;
17796;SDS011;55596;53.554;9.916;2022-12-11T12:12:16;11.57;;;7.40;;
17796;SDS011;55596;53.554;9.916;2022-12-11T12:17:51;9.20;;;6.73;;
17796;SDS011;55596;53.554;9.916;2022-12-11T12:20:23;8.57;;;6.80;;
17796;SDS011;55596;53.554;9.916;2022-12-11T12:23:01;12.23;;;7.37;;
17796;SDS011;55596;53.554;9.916;2022-12-11T12:25:36;9.07;;;7.00;;
17796;SDS011;55596;53.554;9.916;2022-12-11T12:28:12;7.87;;;6.83;;
17796;SDS011;55596;53.554;9.916;2022-12-11T12:30:48;13.43;;;7.67;;
17796;SDS011;55596;53.554;9.916;2022-12-11T12:33:28;9.00;;;7.40;;
17796;SDS011;55596;53.554;9.916;2022-12-11T12:36:05;9.70;;;7.30;;
17796;SDS011;55596;53.554;9.916;2022-12-11T12:38:43;10.13;;;7.57;;
17796;SDS011;55596;53.554;9.916;2022-12-11T12:41:19;10.87;;;8.20;;
17796;SDS011;55596;53.554;9.916;2022-12-11T12:43:53;8.90;;;6.90;;
17796;SDS011;55596;53.554;9.916;2022-12-11T12:46:31;10.00;;;7.70;;
17796;SDS011;55596;53.554;9.916;2022-12-11T12:49:26;11.27;;;7.63;;
17796;SDS011;55596;53.554;9.916;2022-12-11T12:51:58;12.43;;;8.10;;
17796;SDS011;55596;53.554;9.916;2022-12-11T12:54:25;10.97;;;7.93;;
17796;SDS011;55596;53.554;9.916;2022-12-11T12:56:55;10.70;;;7.17;;
17796;SDS011;55596;53.554;9.916;2022-12-11T12:59:24;11.37;;;8.57;;
17796;SDS011;55596;53.554;9.916;2022-12-11T13:01:53;10.87;;;8.43;;
17796;SDS011;55596;53.554;9.916;2022-12-11T13:04:34;10.70;;;8.27;;
17796;SDS011;55596;53.554;9.916;2022-12-11T13:07:10;10.87;;;8.23;;
17796;SDS011;55596;53.554;9.916;2022-12-11T13:09:41;11.30;;;8.33;;
17796;SDS011;55596;53.554;9.916;2022-12-11T13:12:12;10.33;;;8.03;;
17796;SDS011;55596;53.554;9.916;2022-12-11T13:14:40;11.83;;;8.33;;
17796;SDS011;55596;53.554;9.916;2022-12-11T13:17:24;10.20;;;7.80;;
17796;SDS011;55596;53.554;9.916;2022-12-11T13:20:15;8.77;;;7.17;;
17796;SDS011;55596;53.554;9.916;2022-12-11T13:22:48;9.70;;;7.73;;
17796;SDS011;55596;53.554;9.916;2022-12-11T13:25:20;11.20;;;7.90;;
17796;SDS011;55596;53.554;9.916;2022-12-11T13:27:50;11.13;;;7.60;;
17796;SDS011;55596;53.554;9.916;2022-12-11T13:30:22;15.20;;;7.60;;
17796;SDS011;55596;53.554;9.916;2022-12-11T13:32:57;13.23;;;7.47;;
17796;SDS011;55596;53.554;9.916;2022-12-11T13:35:32;9.23;;;7.67;;
17796;SDS011;55596;53.554;9.916;2022-12-11T13:38:02;9.40;;;7.50;;
17796;SDS011;55596;53.554;9.916;2022-12-11T13:40:34;11.30;;;7.77;;
17796;SDS011;55596;53.554;9.916;2022-12-11T13:43:07;8.70;;;7.40;;
17796;SDS011;55596;53.554;9.916;2022-12-11T13:45:46;11.10;;;7.73;;
17796;SDS011;55596;53.554;9.916;2022-12-11T13:48:17;11.20;;;8.27;;
17796;SDS011;55596;53.554;9.916;2022-12-11T13:50:55;12.73;;;7.43;;
17796;SDS011;55596;53.554;9.916;2022-12-11T13:53:28;11.52;;;8.60;;
17796;SDS011;55596;53.554;9.916;2022-12-11T13:56:12;12.57;;;7.40;;
17796;SDS011;55596;53.554;9.916;2022-12-11T13:58:46;10.80;;;7.57;;
17796;SDS011;55596;53.554;9.916;2022-12-11T14:01:19;14.37;;;8.30;;
17796;SDS011;55596;53.554;9.916;2022-12-11T14:03:50;12.63;;;7.47;;
17796;SDS011;55596;53.554;9.916;2022-12-11T14:06:21;13.10;;;8.10;;
17796;SDS011;55596;53.554;9.916;2022-12-11T14:08:50;12.83;;;9.03;;
17796;SDS011;55596;53.554;9.916;2022-12-11T14:11:20;11.27;;;7.67;;
17796;SDS011;55596;53.554;9.916;2022-12-11T14:13:53;13.47;;;8.53;;
17796;SDS011;55596;53.554;9.916;2022-12-11T14:16:23;11.40;;;8.67;;
17796;SDS011;55596;53.554;9.916;2022-12-11T14:21:53;12.37;;;8.70;;
17796;SDS011;55596;53.554;9.916;2022-12-11T14:24:27;11.83;;;7.90;;
17796;SDS011;55596;53.554;9.916;2022-12-11T14:26:56;17.27;;;9.83;;
17796;SDS011;55596;53.554;9.916;2022-12-11T14:29:37;16.20;;;8.40;;
17796;SDS011;55596;53.554;9.916;2022-12-11T14:32:05;13.43;;;9.30;;
17796;SDS011;55596;53.554;9.916;2022-12-11T14:34:47;13.93;;;9.73;;
17796;SDS011;55596;53.554;9.916;2022-12-11T14:37:32;13.73;;;8.60;;
17796;SDS011;55596;53.554;9.916;2022-12-11T14:40:02;14.13;;;8.93;;
17796;SDS011;55596;53.554;9.916;2022-12-11T14:42:38;16.00;;;10.03;;
17796;SDS011;55596;53.554;9.916;2022-12-11T14:45:23;22.93;;;10.57;;
17796;SDS011;55596;53.554;9.916;2022-12-11T14:47:58;19.47;;;8.93;;
17796;SDS011;55596;53.554;9.916;2022-12-11T14:50:42;16.93;;;9.50;;
17796;SDS011;55596;53.554;9.916;2022-12-11T14:53:26;19.10;;;9.77;;
17796;SDS011;55596;53.554;9.916;2022-12-11T14:56:00;20.30;;;9.37;;